الصفحة الرئيسية
METAR-TAF:

METAR-TAF

مطار :

مطار ميتشيل رومان الدولي

كورور, Babeldaob, بالاو

دائرة عرض: 07-22N, خط طول: 134-32E, ارتفاع: 54 متر

مراقبة الطقس الحالي

تاريخ ووقت الإصدار 26 دقيقة قبل الساعة 23:55UTC
ريح 7 عقدة من الغرب
درجة الحرارة 28°درجة مئوية
الرطوبة 79%
ضغط 1011 hPa
الرؤية: 24.1 كم
غيوم متفرقة على ارتفاع 1600 قدم, مزن ركامية عمودية.
غيوم مفككة على ارتفاع 12000 قدم
غيوم مفككة على ارتفاع 30000 قدم

METAR: PTRO 172355Z 26007KT 15SM SCT016TCU BKN120 BKN300 28/24 A2984 RMK TCU ALQDS

زمن: 09:21 (00:21 UTC)

توقعات

تاريخ ووقت الإصدار 50 دقيقة قبل الساعة 23:31UTC
التوقعات صالحة من18 الساعة 00 UTC إلى 18 الساعة 24 UTC
ريح 11 عقدة من الغرب/الجنوب الغربي
الرؤية: 10 كم
غيوم متفرقة على ارتفاع 1600 قدم
غيوم مفككة على ارتفاع 11000 قدم
زخات في الجوار
مؤقت
من 18 الساعة 00 UTC إلى 18 الساعة 04 UTC
غيوم مفككة على ارتفاع 1600 قدم
غيوم مفككة على ارتفاع 11000 قدم
زخات من الأمطار الخفيفة

TAF: PTRO 172331Z 1800/1824 25011KT P6SM VCSH SCT016 BKN110 TEMPO 1800/1804 -SHRA BKN016 BKN110

أرصاد الطقس والتوقعات من أكثر من 4000 مطار (تقارير الطقس للمطار METAR والتنبؤ بالطقس بالمطارTAF).

المحطات المتاحة هي النقط الصفراء والحمراء على الخريطة.

حرك المؤشر فوق النقطة لمعرفة اسم المحطة.

ثم انقر لمعرفة أرصاد وتوقعات الطقس.

لتغيير الخارطة: اضغط على الأزرار الخضراء مع رمز الصليب الأسود للتكبير. على الزر الأخضر مع شرطة للتصغير، أو على الأسهم الخضراء للخرائط المجاورة.


METAR-TAF: